createdAt,value
2022-10-23T00:02:03.500Z,101243.19
2022-10-23T00:04:34.670Z,101245.66
2022-10-23T00:07:05.657Z,101253.31
2022-10-23T00:09:34.633Z,101238.13
2022-10-23T00:12:03.688Z,101234.97
2022-10-23T00:14:32.322Z,101220.97
2022-10-23T00:17:01.070Z,101227.53
2022-10-23T00:19:31.355Z,101220.38
2022-10-23T00:22:02.699Z,101237.31
2022-10-23T00:24:33.584Z,101229.59
2022-10-23T00:27:02.515Z,101221.06
2022-10-23T00:29:31.162Z,101229.81
2022-10-23T00:32:02.007Z,101225.44
2022-10-23T00:34:32.020Z,101226.44
2022-10-23T00:37:00.618Z,101225.91
2022-10-23T00:39:29.657Z,101225.34
2022-10-23T00:41:58.270Z,101226.56
2022-10-23T00:45:04.164Z,101229.59
2022-10-23T00:47:33.291Z,101225.44
2022-10-23T00:50:03.459Z,101214.06
2022-10-23T00:52:34.812Z,101225.91
2022-10-23T00:55:06.373Z,101225.66
2022-10-23T00:57:35.399Z,101221.94
2022-10-23T01:00:05.035Z,101201.09
2022-10-23T01:02:34.168Z,101219.91
2022-10-23T01:05:04.437Z,101217.59
2022-10-23T01:07:44.417Z,101216.38
2022-10-23T01:10:21.727Z,101204.53
2022-10-23T01:12:56.896Z,101194.59
2022-10-23T01:15:31.618Z,101197.94
2022-10-23T01:18:07.650Z,101192.88
2022-10-23T01:20:43.581Z,101210.16
2022-10-23T01:23:30.348Z,101199.13
2022-10-23T01:26:10.080Z,101204.56
2022-10-23T01:28:48.718Z,101208.47
2022-10-23T01:31:21.138Z,101201.84
2022-10-23T01:33:56.161Z,101189.69
2022-10-23T01:36:33.064Z,101196.22
2022-10-23T01:39:08.012Z,101190.09
2022-10-23T01:41:43.280Z,101192.94
2022-10-23T01:44:17.839Z,101190.47
2022-10-23T01:46:50.425Z,101177.88
2022-10-23T01:49:21.934Z,101165.00
2022-10-23T01:51:58.485Z,101166.44
2022-10-23T01:54:31.586Z,101166.91
2022-10-23T01:57:00.564Z,101046.03
2022-10-23T01:59:36.888Z,101156.75
2022-10-23T02:02:12.151Z,101150.06
2022-10-23T02:04:52.427Z,101140.78
2022-10-23T02:07:21.384Z,101153.97
2022-10-23T02:09:52.791Z,101140.09
2022-10-23T02:12:30.786Z,101145.16
2022-10-23T02:15:07.988Z,101139.53
2022-10-23T02:17:52.675Z,101127.88
2022-10-23T02:20:28.904Z,101114.22
2022-10-23T02:23:03.198Z,101139.47
2022-10-23T02:25:37.434Z,101145.16
2022-10-23T02:28:11.794Z,101132.09
2022-10-23T02:30:50.817Z,101136.94
2022-10-23T02:33:20.501Z,101136.53
2022-10-23T02:35:49.966Z,101139.81
2022-10-23T02:38:34.313Z,101145.97
2022-10-23T02:41:17.420Z,101135.78
2022-10-23T02:43:56.671Z,101123.88
2022-10-23T02:46:38.148Z,101125.19
2022-10-23T02:49:15.927Z,101125.03
2022-10-23T02:51:57.026Z,101121.03
2022-10-23T02:54:38.203Z,101115.47
2022-10-23T02:57:19.127Z,101112.69
2022-10-23T02:59:56.715Z,101114.44
2022-10-23T03:02:30.137Z,101111.41
2022-10-23T03:05:01.672Z,101106.94
2022-10-23T03:07:35.373Z,101100.59
2022-10-23T03:10:10.117Z,101083.47
2022-10-23T03:12:39.498Z,101073.28
2022-10-23T03:15:12.707Z,101081.72
2022-10-23T03:17:44.590Z,100960.63
2022-10-23T03:20:14.547Z,101073.72
2022-10-23T03:22:46.533Z,101068.34
2022-10-23T03:25:15.574Z,101068.19
2022-10-23T03:27:47.638Z,101068.97
2022-10-23T03:30:18.621Z,101069.28
2022-10-23T03:32:52.724Z,101067.72
2022-10-23T03:35:23.692Z,101066.41
2022-10-23T03:37:55.944Z,101062.38
2022-10-23T03:40:27.147Z,101061.75
2022-10-23T03:42:55.926Z,101058.75
2022-10-23T03:45:24.627Z,101049.38
2022-10-23T03:47:54.705Z,101054.31
2022-10-23T03:50:23.302Z,101044.16
2022-10-23T03:52:54.499Z,101037.44
2022-10-23T03:55:23.217Z,101020.25
2022-10-23T03:57:52.291Z,101018.41
2022-10-23T04:00:22.551Z,101023.16
2022-10-23T04:02:54.934Z,101014.66
2022-10-23T04:05:23.578Z,101011.72
2022-10-23T04:07:56.628Z,101014.50
2022-10-23T04:10:25.468Z,101007.25
2022-10-23T04:12:54.357Z,101000.72
2022-10-23T04:15:23.153Z,101008.19
2022-10-23T04:17:51.829Z,100998.47
2022-10-23T04:20:25.461Z,100999.00
2022-10-23T04:22:54.060Z,100960.63
2022-10-23T04:25:24.944Z,100988.56
2022-10-23T04:27:53.606Z,100985.81
2022-10-23T04:30:24.887Z,100977.94
2022-10-23T04:32:54.267Z,100986.50
2022-10-23T04:35:22.888Z,100983.91
2022-10-23T04:37:52.961Z,100985.75
2022-10-23T04:40:21.636Z,100989.31
2022-10-23T04:42:52.777Z,100988.88
2022-10-23T04:45:21.456Z,100978.75
2022-10-23T04:47:50.410Z,100943.09
2022-10-23T04:50:21.944Z,100965.16
2022-10-23T04:53:28.451Z,100961.41
2022-10-23T04:56:16.675Z,100971.47
2022-10-23T04:58:52.756Z,100975.16
2022-10-23T05:01:21.733Z,100975.97
2022-10-23T05:03:50.410Z,100974.66
2022-10-23T05:06:20.041Z,100977.28
2022-10-23T05:08:58.558Z,100961.84
2022-10-23T05:11:39.169Z,100932.19
2022-10-23T05:14:10.411Z,100968.22
2022-10-23T05:16:46.572Z,100967.88
2022-10-23T05:19:23.381Z,100947.81
2022-10-23T05:21:56.009Z,100954.31
2022-10-23T05:24:30.747Z,100950.81
2022-10-23T05:27:02.237Z,100953.34
2022-10-23T05:29:33.046Z,100955.03
2022-10-23T05:32:04.996Z,100949.72
2022-10-23T05:34:36.489Z,100930.56
2022-10-23T05:37:09.014Z,100948.84
2022-10-23T05:39:41.495Z,100950.22
2022-10-23T05:42:14.562Z,100947.78
2022-10-23T05:44:43.961Z,100956.88
2022-10-23T05:47:39.286Z,100961.25
2022-10-23T05:50:27.911Z,100956.56
2022-10-23T05:53:15.992Z,100946.03
2022-10-23T05:56:10.679Z,100944.84
2022-10-23T05:59:02.213Z,100921.56
2022-10-23T06:01:51.284Z,100936.25
2022-10-23T06:04:37.150Z,100932.03
2022-10-23T06:07:17.836Z,100926.72
2022-10-23T06:09:48.349Z,100919.50
2022-10-23T06:12:18.549Z,100894.09
2022-10-23T06:14:49.015Z,100924.06
2022-10-23T06:17:20.197Z,100914.88
2022-10-23T06:19:50.140Z,100890.50
2022-10-23T06:25:03.286Z,100908.75
2022-10-23T06:27:33.614Z,100901.50
2022-10-23T06:30:07.252Z,100905.41
2022-10-23T06:32:36.336Z,100896.00
2022-10-23T06:35:14.144Z,100889.91
2022-10-23T06:37:42.879Z,100892.56
2022-10-23T06:40:19.394Z,100781.56
2022-10-23T06:43:01.281Z,100881.13
2022-10-23T06:45:37.990Z,100876.28
2022-10-23T06:48:18.259Z,100889.66
2022-10-23T06:51:06.613Z,100871.78
2022-10-23T06:53:41.615Z,100888.56
2022-10-23T06:56:30.350Z,100877.63
2022-10-23T06:59:01.242Z,100871.00
2022-10-23T07:01:34.067Z,100795.22
2022-10-23T07:04:05.844Z,100879.13
2022-10-23T07:06:34.740Z,100869.72
2022-10-23T07:09:06.456Z,100874.03
2022-10-23T07:12:02.069Z,100865.75
2022-10-23T07:14:42.163Z,100880.97
2022-10-23T07:17:11.308Z,100884.72
2022-10-23T07:19:40.719Z,100870.19
2022-10-23T07:22:16.095Z,100864.97
2022-10-23T07:25:11.731Z,100867.78
2022-10-23T07:27:44.056Z,100815.94
2022-10-23T07:30:15.991Z,100866.97
2022-10-23T07:32:52.878Z,100846.38
2022-10-23T07:35:27.719Z,100858.94
2022-10-23T07:38:06.797Z,100848.50
2022-10-23T07:40:39.512Z,100862.66
2022-10-23T07:43:11.150Z,100866.50
2022-10-23T07:45:42.623Z,100858.50
2022-10-23T07:48:19.631Z,100865.69
2022-10-23T07:51:03.141Z,100853.25
2022-10-23T07:53:33.034Z,100845.31
2022-10-23T07:56:30.241Z,100850.59
2022-10-23T07:59:17.075Z,100836.16
2022-10-23T08:01:56.339Z,100835.22
2022-10-23T08:04:30.262Z,100838.31
2022-10-23T08:07:08.783Z,100832.53
2022-10-23T08:09:43.535Z,100836.94
2022-10-23T08:12:15.504Z,100830.75
2022-10-23T08:14:44.415Z,100834.78
2022-10-23T08:17:15.366Z,100835.16
2022-10-23T08:20:10.742Z,100835.91
2022-10-23T08:22:44.010Z,100831.28
2022-10-23T08:25:24.872Z,100825.53
2022-10-23T08:27:55.289Z,100829.06
2022-10-23T08:30:24.226Z,100819.31
2022-10-23T08:32:54.791Z,100732.09
2022-10-23T08:35:24.054Z,100810.09
2022-10-23T08:37:55.139Z,100811.00
2022-10-23T08:40:26.878Z,100808.00
2022-10-23T08:43:21.036Z,100799.56
2022-10-23T08:46:16.997Z,100793.13
2022-10-23T08:49:30.791Z,100780.25
2022-10-23T08:52:16.129Z,100778.47
2022-10-23T08:54:58.302Z,100753.63
2022-10-23T08:57:34.766Z,100770.41
2022-10-23T09:00:07.242Z,100764.34
2022-10-23T09:02:42.017Z,100665.94
2022-10-23T09:05:18.004Z,100777.22
2022-10-23T09:08:05.851Z,100758.41
2022-10-23T09:10:50.615Z,100758.44
2022-10-23T09:13:41.606Z,100756.91
2022-10-23T09:16:22.536Z,100751.63
2022-10-23T09:18:51.591Z,100731.97
2022-10-23T09:21:30.379Z,100740.00
2022-10-23T09:24:00.752Z,100738.06
2022-10-23T09:26:29.783Z,100735.19
2022-10-23T09:29:15.284Z,100735.66
2022-10-23T09:31:50.727Z,100733.06
2022-10-23T09:34:24.532Z,100721.00
2022-10-23T09:36:57.305Z,100722.69
2022-10-23T09:39:30.281Z,100727.28
2022-10-23T09:41:59.921Z,100715.22
2022-10-23T09:44:33.655Z,100703.56
2022-10-23T09:47:12.305Z,100712.97
2022-10-23T09:49:47.702Z,100711.81
2022-10-23T09:52:34.475Z,100708.69
2022-10-23T09:55:05.527Z,100705.78
2022-10-23T09:57:41.084Z,100696.63
2022-10-23T10:00:18.835Z,100696.03
2022-10-23T10:02:59.433Z,100695.38
2022-10-23T10:05:34.608Z,100691.63
2022-10-23T10:08:16.512Z,100698.84
2022-10-23T10:10:52.273Z,100584.44
2022-10-23T10:13:43.644Z,100690.78
2022-10-23T10:16:21.781Z,100684.81
2022-10-23T10:18:58.556Z,100693.13
2022-10-23T10:21:31.227Z,100681.81
2022-10-23T10:24:09.732Z,100676.31
2022-10-23T10:26:45.724Z,100655.25
2022-10-23T10:29:30.810Z,100667.41
2022-10-23T10:32:07.457Z,100631.16
2022-10-23T10:34:44.315Z,100668.06
2022-10-23T10:37:26.513Z,100668.81
2022-10-23T10:40:04.052Z,100655.69
2022-10-23T10:42:49.849Z,100652.88
2022-10-23T10:45:28.190Z,100634.22
2022-10-23T10:48:25.682Z,100632.22
2022-10-23T10:51:22.437Z,100613.47
2022-10-23T10:54:09.681Z,100614.81
2022-10-23T10:56:42.825Z,100596.88
2022-10-23T10:59:17.963Z,100591.75
2022-10-23T11:01:54.584Z,100583.31
2022-10-23T11:04:33.305Z,100573.22
2022-10-23T11:07:09.177Z,100573.28
2022-10-23T11:09:39.892Z,100564.81
2022-10-23T11:12:18.851Z,100551.06
2022-10-23T11:14:47.900Z,100558.78
2022-10-23T11:17:21.385Z,100558.81
2022-10-23T11:20:00.558Z,100544.06
2022-10-23T11:22:37.714Z,100539.84
2022-10-23T11:25:47.696Z,100530.69
2022-10-23T11:28:29.569Z,100522.28
2022-10-23T11:31:12.117Z,100528.06
2022-10-23T11:34:02.459Z,100516.50
2022-10-23T11:36:44.112Z,100523.66
2022-10-23T11:39:20.539Z,100513.75
2022-10-23T11:41:52.406Z,100511.00
2022-10-23T11:44:39.127Z,100486.94
2022-10-23T11:47:39.351Z,100480.56
2022-10-23T11:50:24.954Z,100498.78
2022-10-23T11:53:12.940Z,100492.13
2022-10-23T11:55:59.790Z,100475.41
2022-10-23T11:58:40.785Z,100482.09
2022-10-23T12:01:38.453Z,100477.31
2022-10-23T12:04:21.456Z,100477.19
2022-10-23T12:06:53.667Z,100468.13
2022-10-23T12:09:32.712Z,100458.31
2022-10-23T12:12:28.531Z,100455.09
2022-10-23T12:15:09.983Z,100424.03
2022-10-23T12:17:42.087Z,100439.56
2022-10-23T12:20:23.896Z,100431.19
2022-10-23T12:23:09.480Z,100433.59
2022-10-23T12:25:52.288Z,100432.38
2022-10-23T12:28:35.220Z,100426.84
2022-10-23T12:31:18.761Z,100433.34
2022-10-23T12:33:55.947Z,100435.25
2022-10-23T12:36:40.070Z,100431.03
2022-10-23T12:39:27.963Z,100430.94
2022-10-23T12:41:58.385Z,100405.81
2022-10-23T12:44:28.326Z,100421.00
2022-10-23T12:47:00.387Z,100420.63
2022-10-23T12:49:35.520Z,100423.13
2022-10-23T12:52:06.965Z,100415.72
2022-10-23T12:54:40.699Z,100412.94
2022-10-23T12:57:21.931Z,100405.44
2022-10-23T12:59:52.622Z,100307.81
2022-10-23T13:02:26.264Z,100383.84
2022-10-23T13:04:59.344Z,100374.56
2022-10-23T13:07:30.409Z,100372.44
2022-10-23T13:10:01.850Z,100360.06
2022-10-23T13:12:41.437Z,100358.13
2022-10-23T13:15:18.550Z,100361.13
2022-10-23T13:17:49.025Z,100339.88
2022-10-23T13:20:26.390Z,100335.00
2022-10-23T13:23:01.002Z,100324.00
2022-10-23T13:25:32.221Z,100333.31
2022-10-23T13:28:25.534Z,100320.69
2022-10-23T13:31:06.924Z,100326.78
2022-10-23T13:33:40.656Z,100301.59
2022-10-23T13:36:24.506Z,100296.22
2022-10-23T13:39:13.521Z,100306.28
2022-10-23T13:41:44.299Z,100302.88
2022-10-23T13:44:15.972Z,100295.28
2022-10-23T13:46:44.904Z,100298.03
2022-10-23T13:49:14.082Z,100300.59
2022-10-23T13:51:48.672Z,100300.13
2022-10-23T13:54:19.732Z,100286.91
2022-10-23T13:56:51.841Z,100292.94
2022-10-23T13:59:20.795Z,100289.91
2022-10-23T14:01:51.200Z,100283.88
2022-10-23T14:04:20.487Z,100280.53
2022-10-23T14:06:50.515Z,100277.38
2022-10-23T14:09:19.655Z,100277.69
2022-10-23T14:11:48.291Z,100274.41
2022-10-23T14:14:19.895Z,100278.91
2022-10-23T14:16:52.816Z,100283.47
2022-10-23T14:19:27.346Z,100278.66
2022-10-23T14:22:00.257Z,100266.72
2022-10-23T14:24:29.200Z,100272.41
2022-10-23T14:26:59.629Z,100277.78
2022-10-23T14:29:30.688Z,100276.28
2022-10-23T14:32:01.545Z,100274.75
2022-10-23T14:34:32.496Z,100263.94
2022-10-23T14:37:08.924Z,100261.09
2022-10-23T14:39:38.760Z,100261.81
2022-10-23T14:42:07.499Z,100260.94
2022-10-23T14:44:36.267Z,100257.84
2022-10-23T14:47:05.018Z,100258.53
2022-10-23T14:49:35.645Z,100258.94
2022-10-23T14:52:06.359Z,100246.84
2022-10-23T14:54:36.432Z,100237.16
2022-10-23T14:57:07.760Z,100230.88
2022-10-23T14:59:36.428Z,100225.13
2022-10-23T15:02:11.748Z,100228.63
2022-10-23T15:04:40.685Z,100227.22
2022-10-23T15:07:10.872Z,100230.50
2022-10-23T15:09:39.767Z,100234.34
2022-10-23T15:12:08.872Z,100216.94
2022-10-23T15:14:37.486Z,100214.94
2022-10-23T15:17:07.736Z,100205.47
2022-10-23T15:19:38.258Z,100194.00
2022-10-23T15:22:10.696Z,100194.94
2022-10-23T15:24:41.564Z,100194.09
2022-10-23T15:29:44.203Z,100171.59
2022-10-23T15:32:13.502Z,100165.56
2022-10-23T15:34:42.922Z,100170.69
2022-10-23T15:37:13.371Z,100172.06
2022-10-23T15:39:44.773Z,100162.72
2022-10-23T15:42:13.699Z,100167.75
2022-10-23T15:44:42.383Z,100160.84
2022-10-23T15:47:13.517Z,100161.06
2022-10-23T15:49:42.181Z,100157.50
2022-10-23T15:52:11.400Z,100162.78
2022-10-23T15:54:41.781Z,100176.81
2022-10-23T15:57:11.585Z,100166.59
2022-10-23T15:59:42.468Z,100165.34
2022-10-23T16:02:12.747Z,100156.22
2022-10-23T16:04:41.527Z,100141.63
2022-10-23T16:07:12.501Z,100144.00
2022-10-23T16:09:42.737Z,100156.66
2022-10-23T16:12:14.597Z,100158.09
2022-10-23T16:14:43.257Z,100163.03
2022-10-23T16:17:13.285Z,100154.44
2022-10-23T16:19:42.409Z,100138.47
2022-10-23T16:22:11.140Z,100152.09
2022-10-23T16:24:40.313Z,100132.78
2022-10-23T16:27:15.072Z,100141.72
2022-10-23T16:29:44.016Z,100041.97
2022-10-23T16:32:15.439Z,100134.75
2022-10-23T16:34:45.181Z,100143.84
2022-10-23T16:37:16.156Z,100135.81
2022-10-23T16:39:52.838Z,100127.81
2022-10-23T16:42:52.193Z,100011.56
2022-10-23T16:45:43.304Z,100147.09
2022-10-23T16:48:12.278Z,100130.56
2022-10-23T16:50:41.419Z,100126.09
2022-10-23T16:53:11.706Z,100110.78
2022-10-23T16:55:41.708Z,100107.75
2022-10-23T16:58:11.748Z,100113.34
2022-10-23T17:00:45.226Z,100114.84
2022-10-23T17:03:18.991Z,100114.47
2022-10-23T17:05:47.742Z,100119.03
2022-10-23T17:08:18.750Z,100117.38
2022-10-23T17:10:47.964Z,100118.19
2022-10-23T17:13:18.187Z,100114.38
2022-10-23T17:15:46.869Z,100111.56
2022-10-23T17:18:15.942Z,100112.00
2022-10-23T17:20:45.056Z,100116.97
2022-10-23T17:23:14.149Z,100113.59
2022-10-23T17:25:45.629Z,100106.03
2022-10-23T17:28:18.217Z,100098.63
2022-10-23T17:30:46.912Z,100102.50
2022-10-23T17:33:18.957Z,100116.03
2022-10-23T17:35:47.926Z,100127.19
2022-10-23T17:38:21.675Z,99982.63
2022-10-23T17:40:52.673Z,100136.25
2022-10-23T17:43:22.670Z,100132.84
2022-10-23T17:45:51.262Z,100118.59
2022-10-23T17:48:19.857Z,100107.88
2022-10-23T17:50:48.418Z,100101.59
2022-10-23T17:53:19.262Z,100093.75
2022-10-23T17:55:47.941Z,100097.44
2022-10-23T17:58:16.594Z,100095.09
2022-10-23T18:00:46.666Z,100095.94
2022-10-23T18:03:19.835Z,100101.31
2022-10-23T18:05:51.003Z,100093.31
2022-10-23T18:08:21.820Z,100094.56
2022-10-23T18:10:52.963Z,100088.34
2022-10-23T18:13:23.997Z,100077.94
2022-10-23T18:15:56.690Z,100065.19
2022-10-23T18:18:25.313Z,100054.59
2022-10-23T18:20:53.946Z,100064.09
2022-10-23T18:23:22.863Z,100074.09
2022-10-23T18:25:51.669Z,100087.06
2022-10-23T18:28:20.566Z,100103.69
2022-10-23T18:30:53.415Z,100107.72
2022-10-23T18:33:31.215Z,100075.72
2022-10-23T18:36:00.191Z,100083.28
2022-10-23T18:38:30.105Z,100083.81
2022-10-23T18:41:01.570Z,100093.72
2022-10-23T18:43:43.419Z,100092.31
2022-10-23T18:46:13.232Z,100085.13
2022-10-23T18:48:43.662Z,100079.13
2022-10-23T18:51:41.319Z,100077.28
2022-10-23T18:54:14.035Z,100056.88
2022-10-23T18:56:43.473Z,100097.47
2022-10-23T18:59:33.950Z,100097.97
2022-10-23T19:02:13.301Z,100130.81
2022-10-23T19:04:46.843Z,100162.28
2022-10-23T19:07:36.082Z,100250.28
2022-10-23T19:11:00.167Z,100243.84
2022-10-23T19:13:39.245Z,100227.91
2022-10-23T19:16:23.987Z,100215.66
2022-10-23T19:19:20.783Z,100230.13
2022-10-23T19:21:55.864Z,100214.00
2022-10-23T19:24:59.514Z,100190.34
2022-10-23T19:27:39.617Z,100186.31
2022-10-23T19:30:13.864Z,100182.72
2022-10-23T19:32:48.821Z,100168.31
2022-10-23T19:35:40.846Z,100172.47
2022-10-23T19:38:25.380Z,100151.84
2022-10-23T19:40:56.788Z,100138.50
2022-10-23T19:43:25.945Z,100138.72
2022-10-23T19:46:06.310Z,100135.47
2022-10-23T19:48:44.437Z,100068.41
2022-10-23T19:51:14.539Z,100149.22
2022-10-23T19:53:55.326Z,100172.31
2022-10-23T19:56:27.346Z,100145.63
2022-10-23T19:58:56.107Z,100140.47
2022-10-23T20:01:28.993Z,100143.97
2022-10-23T20:03:58.721Z,100046.75
2022-10-23T20:06:34.788Z,100162.47
2022-10-23T20:09:09.336Z,100166.78
2022-10-23T20:11:41.619Z,100159.41
2022-10-23T20:14:10.256Z,100168.22
2022-10-23T20:16:40.317Z,100138.19
2022-10-23T20:19:11.817Z,100166.91
2022-10-23T20:21:47.323Z,100165.94
2022-10-23T20:24:21.746Z,100174.56
2022-10-23T20:26:53.572Z,100180.97
2022-10-23T20:29:24.650Z,100172.97
2022-10-23T20:31:53.425Z,100146.28
2022-10-23T20:34:25.756Z,100178.38
2022-10-23T20:36:57.462Z,100179.91
2022-10-23T20:39:29.837Z,100057.31
2022-10-23T20:42:00.273Z,100190.00
2022-10-23T20:44:32.392Z,100193.81
2022-10-23T20:47:01.094Z,100183.81
2022-10-23T20:49:29.838Z,100194.41
2022-10-23T20:51:58.978Z,100191.69
2022-10-23T20:54:29.495Z,100191.69
2022-10-23T20:56:58.932Z,100185.13
2022-10-23T20:59:28.116Z,100174.28
2022-10-23T21:01:59.519Z,100184.41
2022-10-23T21:04:29.153Z,100184.19
2022-10-23T21:07:16.465Z,100180.72
2022-10-23T21:09:49.905Z,100182.53
2022-10-23T21:12:18.474Z,100189.56
2022-10-23T21:14:47.123Z,100182.16
2022-10-23T21:17:17.629Z,100193.47
2022-10-23T21:19:46.525Z,100186.22
2022-10-23T21:22:18.688Z,100192.16
2022-10-23T21:24:55.143Z,100187.59
2022-10-23T21:27:26.333Z,100190.38
2022-10-23T21:29:54.997Z,100172.97
2022-10-23T21:32:23.719Z,100135.69
2022-10-23T21:34:52.350Z,100187.75
2022-10-23T21:37:21.008Z,100184.38
2022-10-23T21:39:49.594Z,100184.91
2022-10-23T21:42:19.673Z,100176.56
2022-10-23T21:44:51.278Z,100030.38
2022-10-23T21:47:22.398Z,100180.13
2022-10-23T21:49:51.000Z,100188.00
2022-10-23T21:52:19.922Z,100183.31
2022-10-23T21:54:52.874Z,100177.75
2022-10-23T21:57:25.884Z,100070.50
2022-10-23T21:59:57.075Z,100170.81
2022-10-23T22:02:26.773Z,100172.00
2022-10-23T22:04:55.497Z,100119.41
2022-10-23T22:10:00.767Z,100163.81
2022-10-23T22:12:31.481Z,100171.78
2022-10-23T22:15:01.036Z,100163.91
2022-10-23T22:17:32.234Z,100164.16
2022-10-23T22:20:00.820Z,99957.47
2022-10-23T22:22:29.417Z,100184.16
2022-10-23T22:24:58.709Z,100168.22
2022-10-23T22:27:31.155Z,100152.25
2022-10-23T22:30:03.815Z,100170.34
2022-10-23T22:32:33.051Z,100164.00
2022-10-23T22:35:02.185Z,100165.34
2022-10-23T22:37:33.371Z,100169.06
2022-10-23T22:40:02.488Z,100187.28
2022-10-23T22:42:32.509Z,100168.47
2022-10-23T22:45:01.135Z,100174.19
2022-10-23T22:47:30.554Z,100163.22
2022-10-23T22:49:59.174Z,100163.81
2022-10-23T22:52:27.990Z,100160.34
2022-10-23T22:54:56.640Z,100151.78
2022-10-23T23:00:00.882Z,100025.00
2022-10-23T23:02:31.953Z,100147.13
2022-10-23T23:05:00.624Z,100137.69
2022-10-23T23:07:31.917Z,100145.34
2022-10-23T23:10:02.989Z,100131.03
2022-10-23T23:12:33.831Z,100131.97
2022-10-23T23:15:10.129Z,100136.41
2022-10-23T23:17:38.778Z,100127.94
2022-10-23T23:20:11.305Z,100131.25
2022-10-23T23:22:42.708Z,100126.09
2022-10-23T23:25:14.085Z,100122.53
2022-10-23T23:27:44.880Z,100124.56
2022-10-23T23:30:17.887Z,100127.22
2022-10-23T23:32:52.991Z,100121.00
2022-10-23T23:35:22.060Z,100125.31
2022-10-23T23:37:50.905Z,100116.59
2022-10-23T23:40:19.950Z,100106.94
2022-10-23T23:42:49.097Z,100103.94
2022-10-23T23:45:19.235Z,100109.56
2022-10-23T23:47:47.967Z,100100.03
2022-10-23T23:50:19.165Z,100102.41
2022-10-23T23:52:48.197Z,100096.22
2022-10-23T23:55:19.468Z,100069.06
2022-10-23T23:57:48.456Z,100094.63
